Time;durP1;ratioP1;P1;durP2;ratioP2;P2;SDS_P1;SDS_P2;PMS_P1;PMS_P2;Temp;Humidity;BMP_temperature;BMP_pressure;BME280_temperature;BME280_humidity;BME280_pressure;Samples;Min_cycle;Max_cycle;Signal;HPM_P1;HPM_P2
2023/08/04 00:02:41;;;;;;;8.75;2.90;;;16.50;99.90;;;;;;4871120;29;39023;-79
2023/08/04 00:18:51;;;;;;;11.65;3.00;;;16.60;99.90;;;;;;5207161;23;20037;-80
2023/08/04 01:03:00;;;;;;;11.82;2.47;;;16.80;99.90;;;;;;5181879;23;20522;-81
2023/08/04 03:42:36;;;;;;;4.53;2.67;;;17.00;99.90;;;;;;4928276;23;20056;-81
2023/08/04 03:53:02;;;;;;;7.80;2.50;;;16.70;99.90;;;;;;4872901;29;39880;-83
2023/08/04 03:56:15;;;;;;;5.07;2.20;;;16.70;99.90;;;;;;4853714;29;39981;-80
2023/08/04 03:59:12;;;;;;;4.60;2.10;;;16.70;99.90;;;;;;4908529;29;38497;-81
2023/08/04 04:02:29;;;;;;;6.15;2.17;;;16.70;99.90;;;;;;4915952;29;39327;-80
2023/08/04 04:10:55;;;;;;;6.18;2.47;;;16.70;99.90;;;;;;5568299;23;20042;-80
2023/08/04 04:13:56;;;;;;;6.95;2.53;;;16.70;99.90;;;;;;4869126;29;40277;-80
2023/08/04 04:20:51;;;;;;;7.93;2.88;;;16.80;99.90;;;;;;4912249;29;40241;-80
2023/08/04 04:32:28;;;;;;;4.47;3.08;;;16.70;99.90;;;;;;5509343;23;20092;-82
2023/08/04 05:26:29;;;;;;;6.88;3.17;;;16.50;99.90;;;;;;4830718;29;50437;-82
2023/08/04 05:32:34;;;;;;;9.35;3.28;;;16.50;99.90;;;;;;4890164;29;40743;-79
2023/08/04 05:35:26;;;;;;;12.18;4.43;;;16.50;99.90;;;;;;4903603;28;40273;-79
2023/08/04 08:11:03;;;;;;;4.00;1.55;;;19.80;99.90;;;;;;4491754;23;20053;-81
2023/08/04 08:31:02;;;;;;;5.65;1.20;;;19.40;99.90;;;;;;4850515;29;20036;-80
2023/08/04 08:37:40;;;;;;;4.60;1.40;;;19.00;99.90;;;;;;4751541;29;38423;-79
2023/08/04 08:41:32;;;;;;;5.20;1.25;;;19.00;99.90;;;;;;4782963;29;39494;-81
2023/08/04 08:44:33;;;;;;;6.65;1.45;;;19.20;99.90;;;;;;4836678;29;40220;-79
2023/08/04 08:47:52;;;;;;;4.30;1.23;;;19.70;99.90;;;;;;4869093;29;39918;-82
2023/08/04 08:50:51;;;;;;;3.80;1.25;;;20.00;97.00;;;;;;4855112;29;38728;-80
2023/08/04 08:53:35;;;;;;;3.05;1.10;;;20.10;96.70;;;;;;4823117;29;40339;-81
2023/08/04 09:09:59;;;;;;;3.40;0.75;;;21.40;74.50;;;;;;5512609;23;20061;-79
2023/08/04 09:16:00;;;;;;;2.13;0.85;;;21.80;75.30;;;;;;4885582;29;20029;-80
2023/08/04 09:19:41;;;;;;;3.30;0.85;;;22.00;64.40;;;;;;4841037;29;49319;-79
2023/08/04 09:22:43;;;;;;;3.45;1.10;;;21.80;60.00;;;;;;4855096;29;39118;-79
2023/08/04 09:25:19;;;;;;;4.43;0.93;;;21.60;78.10;;;;;;4856657;29;37107;-79
2023/08/04 09:27:51;;;;;;;6.10;1.40;;;21.00;90.40;;;;;;4854421;29;38214;-79
2023/08/04 09:30:40;;;;;;;4.00;1.25;;;20.60;94.40;;;;;;4815072;29;39254;-79
2023/08/04 09:33:11;;;;;;;3.35;0.82;;;20.40;99.90;;;;;;4859736;29;39176;-79
2023/08/04 09:36:12;;;;;;;2.35;1.08;;;20.20;97.90;;;;;;4829473;29;38725;-80
2023/08/04 09:39:13;;;;;;;4.65;1.13;;;20.20;99.90;;;;;;4834732;29;50227;-79
2023/08/04 09:41:48;;;;;;;2.90;0.93;;;20.40;97.20;;;;;;4841313;29;46864;-79
2023/08/04 09:44:48;;;;;;;5.88;1.17;;;20.60;98.30;;;;;;4845473;29;39171;-80
2023/08/04 09:47:15;;;;;;;3.35;0.93;;;21.10;99.80;;;;;;4842904;29;36417;-78
2023/08/04 09:50:02;;;;;;;3.85;1.30;;;21.00;98.60;;;;;;4853447;29;38534;-80
2023/08/04 10:15:56;;;;;;;1.85;0.50;;;20.90;81.30;;;;;;5060989;23;20047;-79
2023/08/04 10:19:19;;;;;;;1.65;0.52;;;20.80;69.90;;;;;;4898589;28;50125;-80
2023/08/04 10:22:32;;;;;;;3.33;0.57;;;20.90;72.80;;;;;;4939906;28;49850;-79
2023/08/04 10:25:44;;;;;;;3.05;0.73;;;21.20;71.70;;;;;;4875995;28;51110;-79
2023/08/04 10:28:41;;;;;;;1.50;0.70;;;21.30;91.40;;;;;;4875026;29;48739;-80
2023/08/04 10:50:03;;;;;;;1.98;0.70;;;22.50;53.10;;;;;;5361819;24;20154;-79
2023/08/04 10:55:30;;;;;;;1.33;0.60;;;22.50;59.90;;;;;;5022330;23;20041;-79
2023/08/04 10:58:02;;;;;;;1.98;0.77;;;22.40;39.80;;;;;;4894281;29;39407;-78
2023/08/04 11:00:52;;;;;;;3.15;0.90;;;22.40;49.60;;;;;;4875712;29;50070;-78
2023/08/04 11:03:59;;;;;;;3.13;0.98;;;22.60;23.90;;;;;;4881959;29;39951;-79
2023/08/04 11:07:11;;;;;;;2.25;0.80;;;22.50;38.80;;;;;;4884506;29;50115;-80
2023/08/04 11:10:32;;;;;;;2.53;0.68;;;22.50;30.00;;;;;;4842206;29;49595;-79
2023/08/04 11:18:48;;;;;;;5.25;1.13;;;22.50;36.70;;;;;;4881113;28;40600;-78
2023/08/04 11:30:20;;;;;;;2.22;1.05;;;22.40;53.70;;;;;;5034966;23;50217;-78
2023/08/04 11:33:29;;;;;;;3.25;1.00;;;22.90;42.10;;;;;;4865090;29;47087;-79
2023/08/04 11:41:13;;;;;;;3.38;1.25;;;22.60;31.90;;;;;;5908689;23;20190;-79
2023/08/04 11:43:49;;;;;;;;;;;22.20;57.60;;;;;;4924882;29;40315;-78
2023/08/04 11:46:23;;;;;;;5.18;1.10;;;22.10;56.00;;;;;;4866222;29;39518;-78
2023/08/04 11:49:50;;;;;;;4.05;0.98;;;21.60;52.70;;;;;;4839145;29;38552;-78
2023/08/04 11:52:31;;;;;;;4.50;1.30;;;21.20;64.70;;;;;;4847458;29;48618;-79
2023/08/04 12:03:25;;;;;;;5.07;1.02;;;21.10;70.20;;;;;;5519292;23;20052;-80
2023/08/04 12:06:26;;;;;;;3.03;1.00;;;21.20;73.00;;;;;;4930482;28;38650;-81
2023/08/04 12:09:23;;;;;;;5.30;1.20;;;21.20;72.00;;;;;;4917265;28;48580;-81
2023/08/04 12:28:04;;;;;;;3.42;0.75;;;21.60;67.40;;;;;;5783541;23;20005;-80
2023/08/04 12:30:56;;;;;;;1.50;0.90;;;21.90;45.90;;;;;;4910939;28;40361;-81
2023/08/04 12:34:12;;;;;;;1.42;0.80;;;22.10;58.90;;;;;;4932573;28;37657;-80
2023/08/04 12:37:17;;;;;;;3.25;1.00;;;22.40;69.10;;;;;;4887134;29;49710;-80
2023/08/04 12:40:24;;;;;;;2.08;0.88;;;22.60;53.30;;;;;;4883255;29;50085;-80
2023/08/04 12:43:03;;;;;;;2.35;0.90;;;23.10;49.90;;;;;;4882370;29;47869;-79
2023/08/04 12:46:13;;;;;;;3.22;0.75;;;22.70;18.60;;;;;;4899398;29;49768;-79
2023/08/04 12:48:44;;;;;;;6.47;0.85;;;22.50;36.50;;;;;;4888632;28;48076;-79
2023/08/04 12:55:35;;;;;;;2.05;0.77;;;22.00;48.40;;;;;;4908585;28;40415;-80
2023/08/04 13:00:38;;;;;;;2.13;0.82;;;22.10;58.80;;;;;;5248899;23;20040;-79
2023/08/04 13:03:31;;;;;;;4.18;1.00;;;21.50;80.10;;;;;;4923050;29;39168;-79
2023/08/04 13:06:33;;;;;;;1.90;0.90;;;21.60;90.70;;;;;;4909178;28;46846;-79
2023/08/04 13:09:26;;;;;;;2.70;0.90;;;21.60;75.30;;;;;;4888582;28;49920;-79
2023/08/04 13:11:53;;;;;;;6.28;0.98;;;21.80;81.70;;;;;;5134077;24;38473;-79
2023/08/04 13:14:22;;;;;;;2.58;0.85;;;21.70;58.30;;;;;;4932827;28;40037;-80
2023/08/04 13:17:03;;;;;;;4.13;1.08;;;21.50;72.60;;;;;;4936507;28;39283;-80
2023/08/04 13:19:37;;;;;;;2.70;1.00;;;21.40;69.80;;;;;;4935092;28;47849;-79
2023/08/04 13:28:31;;;;;;;3.78;0.80;;;22.50;81.10;;;;;;5413564;23;20045;-79
2023/08/04 13:31:41;;;;;;;3.38;0.82;;;22.70;50.40;;;;;;4896572;29;48754;-81
2023/08/04 13:34:36;;;;;;;5.05;1.30;;;22.40;46.30;;;;;;4904937;28;39365;-80
2023/08/04 13:37:34;;;;;;;7.75;1.20;;;22.10;73.60;;;;;;4885440;28;38923;-78
2023/08/04 13:40:38;;;;;;;4.63;1.25;;;22.00;68.90;;;;;;4877846;29;39597;-79
2023/08/04 13:43:17;;;;;;;2.70;0.80;;;22.40;45.00;;;;;;4874145;29;50033;-81
2023/08/04 13:46:01;;;;;;;4.25;1.00;;;22.30;35.20;;;;;;4898073;29;41646;-80
2023/08/04 13:52:07;;;;;;;2.53;0.90;;;21.80;44.90;;;;;;4930957;28;20032;-80
2023/08/04 13:54:33;;;;;;;3.15;0.80;;;21.30;65.20;;;;;;4928601;28;49220;-78
2023/08/04 13:59:37;;;;;;;2.63;0.52;;;21.60;78.90;;;;;;5423396;23;20067;-78
2023/08/04 14:11:11;;;;;;;4.05;0.90;;;22.20;29.80;;;;;;5377875;23;20048;-79
2023/08/04 14:13:48;;;;;;;2.35;0.70;;;22.00;49.50;;;;;;4876037;29;48737;-79
2023/08/04 14:16:20;;;;;;;2.78;0.70;;;21.90;56.80;;;;;;4900719;28;36958;-78
2023/08/04 14:23:59;;;;;;;0.93;0.60;;;22.00;58.20;;;;;;4927015;28;20055;-79
2023/08/04 14:29:04;;;;;;;1.33;0.60;;;21.90;38.00;;;;;;5192518;23;20037;-79
2023/08/04 14:31:55;;;;;;;1.52;0.60;;;21.30;50.80;;;;;;4902483;28;39209;-81
2023/08/04 14:50:15;;;;;;;2.08;0.90;;;21.00;75.80;;;;;;5181406;23;20813;-80
2023/08/04 14:58:39;;;;;;;2.05;0.93;;;20.50;66.50;;;;;;5037182;23;20039;-80
2023/08/04 15:01:12;;;;;;;3.30;0.85;;;20.80;81.10;;;;;;4921706;28;38212;-80
2023/08/04 15:03:40;;;;;;;3.70;0.90;;;20.70;63.60;;;;;;4931914;28;39036;-80
2023/08/04 15:06:26;;;;;;;1.88;0.68;;;20.60;57.90;;;;;;4932521;28;38670;-80
2023/08/04 15:08:57;;;;;;;2.58;1.08;;;20.50;74.00;;;;;;4936471;28;37482;-81
2023/08/04 15:14:02;;;;;;;1.75;0.90;;;20.30;72.60;;;;;;5076893;23;20049;-81
2023/08/04 15:19:05;;;;;;;2.40;0.80;;;20.80;86.90;;;;;;4938845;23;20041;-81
2023/08/04 15:21:47;;;;;;;2.45;0.88;;;20.90;65.80;;;;;;4934482;28;38641;-81
2023/08/04 15:24:15;;;;;;;2.83;0.80;;;20.80;51.10;;;;;;4923157;28;39163;-80
2023/08/04 15:26:59;;;;;;;1.77;0.88;;;20.80;55.20;;;;;;4928317;28;37891;-81
2023/08/04 15:37:13;;;;;;;2.50;0.60;;;20.80;70.50;;;;;;4943735;23;20044;-81
2023/08/04 15:39:39;;;;;;;1.65;0.52;;;20.80;53.60;;;;;;4931183;28;38392;-80
2023/08/04 15:42:06;;;;;;;2.28;0.63;;;20.40;55.50;;;;;;4929200;28;38520;-80
2023/08/04 15:44:40;;;;;;;4.32;0.98;;;20.30;78.10;;;;;;4929127;28;39302;-80
2023/08/04 15:47:36;;;;;;;1.75;0.57;;;20.60;66.20;;;;;;4924446;28;39853;-81
2023/08/04 15:50:02;;;;;;;4.05;0.70;;;20.70;64.90;;;;;;5548184;23;37402;-79
2023/08/04 15:55:05;;;;;;;3.47;0.52;;;21.10;64.60;;;;;;4886230;29;20050;-79
2023/08/04 15:57:31;;;;;;;2.10;0.60;;;21.20;57.10;;;;;;4871411;29;48498;-79
2023/08/04 16:44:07;;;;;;;2.63;1.00;;;19.90;97.90;;;;;;4972091;23;20048;-79
2023/08/04 16:46:33;;;;;;;6.07;1.20;;;19.70;99.40;;;;;;4892878;29;37646;-80
2023/08/04 16:49:00;;;;;;;3.58;1.00;;;19.60;99.90;;;;;;4881069;29;39800;-80
2023/08/04 16:51:27;;;;;;;4.38;1.00;;;19.60;99.90;;;;;;4882857;29;47406;-81
2023/08/04 16:54:16;;;;;;;3.05;1.10;;;19.50;99.90;;;;;;4883595;29;38658;-80
2023/08/04 16:56:49;;;;;;;4.30;1.10;;;19.40;99.90;;;;;;4871385;29;37920;-81
2023/08/04 16:59:17;;;;;;;3.08;1.55;;;19.50;99.90;;;;;;4891453;29;37740;-80
2023/08/04 17:01:46;;;;;;;6.38;1.33;;;19.50;99.90;;;;;;4970875;23;36354;-81
2023/08/04 17:04:23;;;;;;;3.53;1.17;;;19.50;99.90;;;;;;4856121;29;38920;-81
2023/08/04 17:07:12;;;;;;;3.17;1.23;;;19.50;99.90;;;;;;4863137;29;40119;-80
2023/08/04 17:10:04;;;;;;;4.82;0.90;;;19.50;99.90;;;;;;4858387;29;37802;-79
2023/08/04 17:12:32;;;;;;;;;;;19.50;99.90;;;;;;4823898;29;37586;-80
2023/08/04 17:15:01;;;;;;;2.17;0.80;;;19.50;99.90;;;;;;4873943;29;38679;-80
2023/08/04 17:17:31;;;;;;;2.63;0.93;;;19.40;99.90;;;;;;4864838;29;39696;-80
2023/08/04 17:19:59;;;;;;;;;;;19.50;99.90;;;;;;4859437;29;39684;-79
2023/08/04 17:22:26;;;;;;;5.35;1.33;;;19.50;93.70;;;;;;4874803;29;35794;-80
2023/08/04 17:24:56;;;;;;;2.90;0.68;;;19.50;96.30;;;;;;4870200;29;37162;-80
2023/08/04 17:27:24;;;;;;;4.28;0.98;;;19.40;92.70;;;;;;4865356;29;40778;-79
2023/08/04 17:29:50;;;;;;;5.10;1.08;;;19.40;93.00;;;;;;4864660;29;39114;-80
2023/08/04 17:32:16;;;;;;;5.07;1.10;;;19.50;97.20;;;;;;4881679;29;38963;-80
2023/08/04 17:34:45;;;;;;;2.70;0.82;;;19.50;93.80;;;;;;4874340;29;38712;-80
2023/08/04 17:37:18;;;;;;;2.38;0.95;;;19.30;95.60;;;;;;4851542;29;37995;-81
2023/08/04 17:39:57;;;;;;;2.85;0.80;;;19.30;99.90;;;;;;4832067;29;39296;-80
2023/08/04 17:42:23;;;;;;;2.38;1.13;;;19.20;99.90;;;;;;4824719;29;37093;-79
2023/08/04 17:44:50;;;;;;;4.15;1.05;;;19.10;99.90;;;;;;4831091;29;36216;-80
2023/08/04 17:47:19;;;;;;;2.80;1.00;;;19.10;99.90;;;;;;4835575;29;37899;-80
2023/08/04 17:49:49;;;;;;;2.75;0.93;;;19.10;99.90;;;;;;4836186;29;38144;-80
2023/08/04 17:52:21;;;;;;;3.75;0.90;;;19.10;99.90;;;;;;4824763;29;38760;-81
2023/08/04 17:54:53;;;;;;;2.42;0.82;;;19.10;99.90;;;;;;4851198;29;38073;-80
2023/08/04 17:57:33;;;;;;;;;;;19.00;99.90;;;;;;4820649;29;39573;-80
2023/08/04 18:00:16;;;;;;;3.15;0.90;;;19.00;99.90;;;;;;4828221;29;37467;-81
2023/08/04 18:02:45;;;;;;;2.97;0.93;;;19.00;99.90;;;;;;4798856;29;49409;-80
2023/08/04 18:05:26;;;;;;;3.97;1.05;;;19.00;99.90;;;;;;4826847;29;37899;-80
2023/08/04 18:08:37;;;;;;;3.28;1.23;;;19.00;99.90;;;;;;5260860;23;39473;-79
2023/08/04 18:11:37;;;;;;;5.28;1.10;;;18.90;99.90;;;;;;4883330;29;38508;-80
2023/08/04 18:16:41;;;;;;;4.05;0.88;;;18.70;99.90;;;;;;4893338;23;20054;-80
2023/08/04 18:19:18;;;;;;;3.35;0.80;;;18.70;99.90;;;;;;4866975;29;38984;-80
2023/08/04 18:21:44;;;;;;;4.22;0.80;;;18.60;99.90;;;;;;4866256;29;38328;-79
2023/08/04 18:24:13;;;;;;;2.72;0.95;;;18.50;99.90;;;;;;4870042;29;36792;-80
2023/08/04 18:26:39;;;;;;;4.90;1.10;;;18.40;99.90;;;;;;4863400;29;39034;-80
2023/08/04 18:29:05;;;;;;;2.50;1.00;;;18.40;99.90;;;;;;4857132;29;37660;-80
2023/08/04 18:31:41;;;;;;;4.97;1.00;;;18.30;99.90;;;;;;4868181;29;37503;-82
2023/08/04 18:34:07;;;;;;;1.45;0.70;;;18.30;99.90;;;;;;5178609;23;38620;-81
2023/08/04 18:36:34;;;;;;;6.07;1.20;;;18.30;99.90;;;;;;4900802;29;38792;-81
2023/08/04 18:39:03;;;;;;;4.40;1.10;;;18.30;99.90;;;;;;4871842;29;39359;-82
2023/08/04 18:41:46;;;;;;;5.53;1.10;;;18.30;99.90;;;;;;4897230;29;48828;-81
2023/08/04 18:44:25;;;;;;;3.25;1.50;;;18.30;99.90;;;;;;4904577;29;38800;-81
2023/08/04 18:46:54;;;;;;;5.20;1.15;;;18.30;99.90;;;;;;4912505;29;40186;-81
2023/08/04 18:49:25;;;;;;;2.75;1.00;;;18.30;99.90;;;;;;4883014;29;39971;-81
2023/08/04 18:52:01;;;;;;;5.65;1.20;;;18.30;99.90;;;;;;4903972;29;39986;-81
2023/08/04 18:54:50;;;;;;;4.35;1.40;;;18.20;99.90;;;;;;4891821;29;50362;-80
2023/08/04 18:57:36;;;;;;;4.68;1.73;;;18.20;99.90;;;;;;4888191;29;40138;-81
2023/08/04 19:00:13;;;;;;;4.22;1.30;;;18.20;99.90;;;;;;4900344;29;39795;-81
2023/08/04 19:03:04;;;;;;;6.97;1.52;;;18.10;99.90;;;;;;4864568;29;50215;-80
2023/08/04 19:05:33;;;;;;;5.30;1.20;;;18.10;99.90;;;;;;4889611;29;48733;-80
2023/08/04 19:07:59;;;;;;;4.00;1.33;;;18.10;99.90;;;;;;4901280;29;38573;-81
2023/08/04 19:10:26;;;;;;;9.25;1.77;;;18.10;99.90;;;;;;4893314;29;38848;-80
2023/08/04 19:12:52;;;;;;;5.75;1.75;;;18.00;99.90;;;;;;4888170;29;38014;-80
2023/08/04 19:15:19;;;;;;;2.13;1.30;;;18.00;99.90;;;;;;4881882;29;37077;-79
2023/08/04 19:17:45;;;;;;;5.15;1.50;;;18.00;99.90;;;;;;4879488;29;40978;-79
2023/08/04 19:20:11;;;;;;;6.57;1.70;;;18.00;99.90;;;;;;4876637;29;39152;-79
2023/08/04 19:22:37;;;;;;;5.35;1.58;;;18.00;99.90;;;;;;4880905;29;38831;-79
2023/08/04 19:25:04;;;;;;;4.25;1.33;;;18.00;99.90;;;;;;4880155;29;36107;-78
2023/08/04 19:27:30;;;;;;;4.35;1.20;;;18.00;99.90;;;;;;4868175;29;46888;-79
2023/08/04 19:29:56;;;;;;;4.25;1.42;;;18.00;99.90;;;;;;4889612;29;38002;-79
2023/08/04 19:32:23;;;;;;;4.80;1.48;;;18.00;99.90;;;;;;4867997;29;38675;-79
2023/08/04 19:34:49;;;;;;;6.40;1.63;;;18.00;99.90;;;;;;4871092;29;37587;-79
2023/08/04 19:37:15;;;;;;;2.22;1.33;;;18.00;99.90;;;;;;4868877;29;40676;-79
2023/08/04 19:39:41;;;;;;;3.92;1.55;;;17.90;99.90;;;;;;4883739;29;37944;-78
2023/08/04 19:42:08;;;;;;;4.55;1.52;;;17.90;99.90;;;;;;4870758;29;37836;-78
2023/08/04 19:44:34;;;;;;;3.10;1.40;;;17.80;99.90;;;;;;4871080;29;36155;-78
2023/08/04 19:47:01;;;;;;;2.05;1.30;;;17.80;99.90;;;;;;4868627;29;39943;-78
2023/08/04 19:49:28;;;;;;;3.10;1.50;;;17.70;99.90;;;;;;4866544;29;38803;-79
2023/08/04 19:51:54;;;;;;;3.28;1.30;;;17.70;99.90;;;;;;4871559;29;37597;-79
2023/08/04 19:54:20;;;;;;;2.63;1.77;;;17.70;99.90;;;;;;4867301;29;36275;-79
2023/08/04 19:56:46;;;;;;;3.08;1.35;;;17.60;99.90;;;;;;4868855;29;38353;-79
2023/08/04 19:59:12;;;;;;;3.72;1.70;;;17.60;99.90;;;;;;4884600;29;37331;-79
2023/08/04 20:01:39;;;;;;;2.63;1.65;;;17.50;99.90;;;;;;4866921;29;37057;-79
2023/08/04 20:04:05;;;;;;;3.60;1.92;;;17.50;99.90;;;;;;4862489;29;36986;-79
2023/08/04 20:06:31;;;;;;;3.30;1.30;;;17.50;99.90;;;;;;4885485;29;37756;-78
2023/08/04 20:08:58;;;;;;;3.92;1.60;;;17.50;99.90;;;;;;4867356;29;20050;-78
2023/08/04 20:11:24;;;;;;;5.18;1.80;;;17.50;99.90;;;;;;4870162;29;36966;-79
2023/08/04 20:13:51;;;;;;;3.55;1.48;;;17.40;99.90;;;;;;4871961;29;36071;-82
2023/08/04 20:16:20;;;;;;;2.60;1.45;;;17.40;99.90;;;;;;4872019;29;39410;-79
2023/08/04 20:18:48;;;;;;;3.88;1.80;;;17.40;99.90;;;;;;4869702;29;39034;-80
2023/08/04 20:21:15;;;;;;;5.95;1.95;;;17.40;99.90;;;;;;4865324;29;38146;-79
2023/08/04 20:23:42;;;;;;;2.85;1.60;;;17.40;99.90;;;;;;4867601;29;36997;-79
2023/08/04 20:26:14;;;;;;;7.03;1.85;;;17.30;99.90;;;;;;4871227;29;38690;-80
2023/08/04 20:28:42;;;;;;;6.32;2.35;;;17.30;99.90;;;;;;4865554;29;37817;-79
2023/08/04 20:31:12;;;;;;;4.68;2.20;;;17.30;99.90;;;;;;4881112;29;38988;-80
2023/08/04 20:33:41;;;;;;;2.88;1.90;;;17.20;99.90;;;;;;4864808;29;36179;-79
2023/08/04 20:36:10;;;;;;;6.75;2.38;;;17.20;99.90;;;;;;4866916;29;37308;-79
2023/08/04 20:38:36;;;;;;;5.03;2.17;;;17.10;99.90;;;;;;4863932;29;39158;-79
2023/08/04 20:41:10;;;;;;;6.20;2.05;;;17.10;99.90;;;;;;4867885;29;37257;-79
2023/08/04 20:43:43;;;;;;;3.88;1.70;;;17.10;99.90;;;;;;4868183;29;36093;-79
2023/08/04 20:46:09;;;;;;;3.42;1.80;;;17.10;99.90;;;;;;4866713;29;37715;-79
2023/08/04 20:48:36;;;;;;;2.90;1.90;;;17.00;99.90;;;;;;4871433;29;38944;-81
2023/08/04 20:51:03;;;;;;;5.82;2.13;;;17.00;99.90;;;;;;4872982;29;38447;-80
2023/08/04 20:53:35;;;;;;;5.38;1.92;;;17.00;99.90;;;;;;4867320;29;37008;-80
2023/08/04 20:56:02;;;;;;;5.32;2.45;;;16.90;99.90;;;;;;4874983;29;39278;-80
2023/08/04 20:58:29;;;;;;;2.80;1.77;;;16.90;99.90;;;;;;4867750;29;38021;-79
2023/08/04 21:00:56;;;;;;;6.90;2.35;;;16.90;99.90;;;;;;4872930;29;37716;-78
2023/08/04 21:03:23;;;;;;;4.40;2.13;;;17.00;99.90;;;;;;4874278;29;36386;-78
2023/08/04 21:05:49;;;;;;;9.60;5.40;;;17.00;99.90;;;;;;4869380;29;39327;-77
2023/08/04 21:08:15;;;;;;;8.30;5.03;;;17.10;99.90;;;;;;4869656;29;37616;-77
2023/08/04 21:10:44;;;;;;;6.88;3.60;;;17.10;99.90;;;;;;4875836;29;37794;-77
2023/08/04 21:13:10;;;;;;;3.30;2.20;;;17.00;99.90;;;;;;4874368;29;37607;-77
2023/08/04 21:15:37;;;;;;;3.25;1.90;;;17.10;99.90;;;;;;4877222;29;37203;-78
2023/08/04 21:18:03;;;;;;;3.72;1.77;;;17.10;99.90;;;;;;4876489;29;38906;-78
2023/08/04 21:20:29;;;;;;;2.47;2.00;;;17.20;99.90;;;;;;4870835;29;38017;-78
2023/08/04 21:22:55;;;;;;;2.22;1.65;;;17.20;99.90;;;;;;4874855;29;37269;-78
2023/08/04 21:25:21;;;;;;;3.88;2.10;;;17.20;99.90;;;;;;4880280;29;37645;-78
2023/08/04 21:27:49;;;;;;;3.13;1.90;;;17.20;99.90;;;;;;4873581;29;37951;-80
2023/08/04 21:30:15;;;;;;;2.80;1.75;;;17.30;99.90;;;;;;4874963;29;38187;-78
2023/08/04 21:32:41;;;;;;;5.93;2.28;;;17.30;99.90;;;;;;4872091;29;36012;-79
2023/08/04 21:35:08;;;;;;;3.53;2.00;;;17.30;99.90;;;;;;4887247;29;37543;-79
2023/08/04 21:37:35;;;;;;;2.63;1.63;;;17.30;99.90;;;;;;4874284;29;37518;-79
2023/08/04 21:40:01;;;;;;;2.50;1.67;;;17.30;99.90;;;;;;4889348;29;35676;-79
2023/08/04 21:42:27;;;;;;;4.45;2.03;;;17.30;99.90;;;;;;4890707;29;36393;-79
2023/08/04 21:44:54;;;;;;;2.10;1.50;;;17.20;99.90;;;;;;4874058;29;39014;-78
2023/08/04 21:47:20;;;;;;;4.43;1.92;;;17.30;99.90;;;;;;4892908;29;37950;-78
2023/08/04 21:49:47;;;;;;;4.47;1.85;;;17.30;99.90;;;;;;4877140;29;36434;-79
2023/08/04 21:52:14;;;;;;;5.25;1.98;;;17.30;99.90;;;;;;4873807;29;36528;-80
2023/08/04 21:54:40;;;;;;;5.85;1.85;;;17.30;99.90;;;;;;4889676;29;38768;-78
2023/08/04 21:57:07;;;;;;;4.85;2.20;;;17.40;99.90;;;;;;4892952;29;37972;-78
2023/08/04 21:59:33;;;;;;;4.60;1.55;;;17.30;99.90;;;;;;4895270;29;38803;-79
2023/08/04 22:01:59;;;;;;;4.80;1.90;;;17.30;99.90;;;;;;4888345;29;36285;-78
2023/08/04 22:04:25;;;;;;;4.30;1.70;;;17.30;99.90;;;;;;4891758;29;38486;-79
2023/08/04 22:06:51;;;;;;;3.50;1.67;;;17.40;99.90;;;;;;4901248;29;38325;-79
2023/08/04 22:09:18;;;;;;;6.25;1.73;;;17.40;99.90;;;;;;4892945;29;39124;-79
2023/08/04 22:11:44;;;;;;;4.07;1.88;;;17.30;99.90;;;;;;4893918;29;37138;-78
2023/08/04 22:14:11;;;;;;;2.92;2.17;;;17.30;99.90;;;;;;4887929;29;36873;-79
2023/08/04 22:16:37;;;;;;;4.07;2.20;;;17.30;99.90;;;;;;4876701;29;39797;-79
2023/08/04 22:19:03;;;;;;;3.08;1.75;;;17.30;99.90;;;;;;4877973;29;38720;-79
2023/08/04 22:21:29;;;;;;;3.25;1.50;;;17.30;99.90;;;;;;4888875;29;35986;-79
2023/08/04 22:23:55;;;;;;;4.45;2.00;;;17.30;99.90;;;;;;4886974;29;39163;-79
2023/08/04 22:26:21;;;;;;;2.05;1.77;;;17.30;99.90;;;;;;4876441;29;37873;-78
2023/08/04 22:28:47;;;;;;;2.92;2.08;;;17.30;99.90;;;;;;4893000;29;37082;-79
2023/08/04 22:31:13;;;;;;;3.10;2.10;;;17.30;99.90;;;;;;4878874;29;37037;-78
2023/08/04 22:33:40;;;;;;;3.58;1.63;;;17.30;99.90;;;;;;4877257;29;37977;-78
2023/08/04 22:36:06;;;;;;;3.35;1.52;;;17.30;99.90;;;;;;4876939;29;39161;-79
2023/08/04 22:38:32;;;;;;;5.22;1.70;;;17.20;99.90;;;;;;4880508;29;39400;-79
2023/08/04 22:40:59;;;;;;;3.83;1.48;;;17.20;99.90;;;;;;4883720;29;37507;-79
2023/08/04 22:43:25;;;;;;;3.63;1.80;;;17.20;99.90;;;;;;4872459;29;37634;-79
2023/08/04 22:45:52;;;;;;;3.08;1.35;;;17.20;99.90;;;;;;4875763;29;37681;-78
2023/08/04 22:48:18;;;;;;;5.47;2.10;;;17.20;99.90;;;;;;4878321;29;38351;-78
2023/08/04 22:50:45;;;;;;;2.42;1.90;;;17.30;99.90;;;;;;4878038;29;36081;-79
2023/08/04 22:53:11;;;;;;;6.50;1.90;;;17.30;99.90;;;;;;4878796;29;38973;-79
2023/08/04 22:55:38;;;;;;;3.13;1.80;;;17.30;99.90;;;;;;4874946;29;37905;-79
2023/08/04 22:58:04;;;;;;;2.92;1.63;;;17.30;99.90;;;;;;4881572;29;37333;-79
2023/08/04 23:00:30;;;;;;;4.45;1.40;;;17.30;99.90;;;;;;4878112;29;35995;-79
2023/08/04 23:02:56;;;;;;;2.33;1.67;;;17.30;99.90;;;;;;4878993;29;38454;-79
2023/08/04 23:05:22;;;;;;;3.97;1.70;;;17.30;99.90;;;;;;4872299;29;36429;-79
2023/08/04 23:07:49;;;;;;;2.85;1.63;;;17.30;99.90;;;;;;4870520;29;38465;-79
2023/08/04 23:10:15;;;;;;;5.35;1.73;;;17.30;99.90;;;;;;4877119;29;38010;-78
2023/08/04 23:12:42;;;;;;;3.25;1.80;;;17.30;99.90;;;;;;4875662;29;38977;-79
2023/08/04 23:15:09;;;;;;;4.32;1.60;;;17.30;99.90;;;;;;4874704;29;38797;-78
2023/08/04 23:17:35;;;;;;;2.85;1.60;;;17.20;99.90;;;;;;4878285;29;38139;-78
2023/08/04 23:20:02;;;;;;;3.30;1.65;;;17.20;99.90;;;;;;4878040;29;36775;-79
2023/08/04 23:22:28;;;;;;;3.45;1.63;;;17.10;99.90;;;;;;4873324;29;37912;-78
2023/08/04 23:24:54;;;;;;;2.65;1.98;;;17.00;99.90;;;;;;4868765;29;38559;-78
2023/08/04 23:27:20;;;;;;;4.47;1.98;;;17.00;99.90;;;;;;4870074;29;37188;-79
2023/08/04 23:29:46;;;;;;;3.25;1.98;;;17.00;99.90;;;;;;4876102;29;38151;-79
2023/08/04 23:32:12;;;;;;;4.10;1.70;;;17.00;99.90;;;;;;4875241;29;37802;-78
2023/08/04 23:34:39;;;;;;;3.67;2.00;;;16.90;99.90;;;;;;4881567;29;37498;-79
2023/08/04 23:37:05;;;;;;;3.70;2.10;;;16.90;99.90;;;;;;4878742;29;37351;-79
2023/08/04 23:39:31;;;;;;;3.35;2.20;;;16.90;99.90;;;;;;4876922;29;36613;-78
2023/08/04 23:41:57;;;;;;;2.50;2.10;;;16.80;99.90;;;;;;4881828;29;39536;-78
2023/08/04 23:44:23;;;;;;;2.92;1.63;;;16.80;99.90;;;;;;4875243;29;36043;-78
2023/08/04 23:46:50;;;;;;;3.35;2.28;;;16.80;99.90;;;;;;4875973;29;39713;-78
2023/08/04 23:49:16;;;;;;;4.22;2.50;;;16.80;99.90;;;;;;4869698;29;37828;-78
2023/08/04 23:51:42;;;;;;;5.97;2.63;;;16.70;99.90;;;;;;4866945;29;37160;-78
2023/08/04 23:54:08;;;;;;;3.55;2.65;;;16.60;99.90;;;;;;4869757;29;38093;-79
2023/08/04 23:56:34;;;;;;;3.67;1.90;;;16.50;99.90;;;;;;4870720;29;39075;-78
2023/08/04 23:59:00;;;;;;;5.55;2.17;;;16.50;99.90;;;;;;4883157;29;35907;-79
